sensor_id;sensor_type;location;lat;lon;timestamp;P1;durP1;ratioP1;P2;durP2;ratioP2
79126;SDS011;68528;48.814;8.904;2023-06-22T00:01:20;9.73;;;6.93;;
79126;SDS011;68528;48.814;8.904;2023-06-22T00:03:48;8.52;;;6.07;;
79126;SDS011;68528;48.814;8.904;2023-06-22T00:06:15;10.10;;;6.28;;
79126;SDS011;68528;48.814;8.904;2023-06-22T00:08:42;9.02;;;6.80;;
79126;SDS011;68528;48.814;8.904;2023-06-22T00:11:08;13.27;;;7.35;;
79126;SDS011;68528;48.814;8.904;2023-06-22T00:13:33;8.52;;;6.80;;
79126;SDS011;68528;48.814;8.904;2023-06-22T00:15:58;10.60;;;7.07;;
79126;SDS011;68528;48.814;8.904;2023-06-22T00:18:25;11.82;;;6.55;;
79126;SDS011;68528;48.814;8.904;2023-06-22T00:20:53;9.90;;;6.30;;
79126;SDS011;68528;48.814;8.904;2023-06-22T00:23:23;9.38;;;7.85;;
79126;SDS011;68528;48.814;8.904;2023-06-22T00:25:52;11.48;;;6.13;;
79126;SDS011;68528;48.814;8.904;2023-06-22T00:28:17;11.90;;;7.22;;
79126;SDS011;68528;48.814;8.904;2023-06-22T00:30:46;10.65;;;7.13;;
79126;SDS011;68528;48.814;8.904;2023-06-22T00:33:15;9.77;;;7.03;;
79126;SDS011;68528;48.814;8.904;2023-06-22T00:35:41;16.05;;;7.97;;
79126;SDS011;68528;48.814;8.904;2023-06-22T00:38:07;9.98;;;6.50;;
79126;SDS011;68528;48.814;8.904;2023-06-22T00:40:33;11.57;;;7.28;;
79126;SDS011;68528;48.814;8.904;2023-06-22T00:43:00;11.25;;;7.75;;
79126;SDS011;68528;48.814;8.904;2023-06-22T00:45:26;14.48;;;7.45;;
79126;SDS011;68528;48.814;8.904;2023-06-22T00:47:57;9.93;;;7.40;;
79126;SDS011;68528;48.814;8.904;2023-06-22T00:50:24;9.48;;;6.97;;
79126;SDS011;68528;48.814;8.904;2023-06-22T00:52:56;11.93;;;7.65;;
79126;SDS011;68528;48.814;8.904;2023-06-22T00:55:24;10.82;;;6.90;;
79126;SDS011;68528;48.814;8.904;2023-06-22T00:57:51;9.32;;;7.07;;
79126;SDS011;68528;48.814;8.904;2023-06-22T01:00:20;12.93;;;7.93;;
79126;SDS011;68528;48.814;8.904;2023-06-22T01:02:49;11.23;;;6.93;;
79126;SDS011;68528;48.814;8.904;2023-06-22T01:05:17;13.65;;;7.25;;
79126;SDS011;68528;48.814;8.904;2023-06-22T01:16:23;8.75;;;6.47;;
79126;SDS011;68528;48.814;8.904;2023-06-22T01:18:51;10.77;;;6.60;;
79126;SDS011;68528;48.814;8.904;2023-06-22T01:21:20;10.40;;;7.28;;
79126;SDS011;68528;48.814;8.904;2023-06-22T01:29:39;12.82;;;6.93;;
79126;SDS011;68528;48.814;8.904;2023-06-22T01:32:05;12.13;;;7.85;;
79126;SDS011;68528;48.814;8.904;2023-06-22T01:34:32;7.85;;;6.55;;
79126;SDS011;68528;48.814;8.904;2023-06-22T01:36:58;11.27;;;7.35;;
79126;SDS011;68528;48.814;8.904;2023-06-22T01:39:27;12.50;;;7.38;;
79126;SDS011;68528;48.814;8.904;2023-06-22T01:41:52;9.75;;;6.57;;
79126;SDS011;68528;48.814;8.904;2023-06-22T01:44:19;12.73;;;7.35;;
79126;SDS011;68528;48.814;8.904;2023-06-22T01:46:47;8.32;;;5.72;;
79126;SDS011;68528;48.814;8.904;2023-06-22T01:49:14;12.35;;;6.90;;
79126;SDS011;68528;48.814;8.904;2023-06-22T01:52:01;10.50;;;6.50;;
79126;SDS011;68528;48.814;8.904;2023-06-22T01:54:28;12.35;;;7.00;;
79126;SDS011;68528;48.814;8.904;2023-06-22T01:56:54;9.20;;;6.32;;
79126;SDS011;68528;48.814;8.904;2023-06-22T01:59:31;14.23;;;7.28;;
79126;SDS011;68528;48.814;8.904;2023-06-22T02:02:05;8.52;;;6.75;;
79126;SDS011;68528;48.814;8.904;2023-06-22T02:04:54;12.20;;;7.57;;
79126;SDS011;68528;48.814;8.904;2023-06-22T02:07:45;14.43;;;8.38;;
79126;SDS011;68528;48.814;8.904;2023-06-22T02:10:24;12.35;;;7.43;;
79126;SDS011;68528;48.814;8.904;2023-06-22T02:12:53;10.73;;;6.60;;
79126;SDS011;68528;48.814;8.904;2023-06-22T02:15:19;11.60;;;7.00;;
79126;SDS011;68528;48.814;8.904;2023-06-22T02:17:47;9.40;;;7.05;;
79126;SDS011;68528;48.814;8.904;2023-06-22T02:20:13;12.18;;;6.78;;
79126;SDS011;68528;48.814;8.904;2023-06-22T02:22:39;11.93;;;6.88;;
79126;SDS011;68528;48.814;8.904;2023-06-22T02:25:07;16.40;;;7.35;;
79126;SDS011;68528;48.814;8.904;2023-06-22T02:27:32;14.25;;;7.45;;
79126;SDS011;68528;48.814;8.904;2023-06-22T02:30:00;10.50;;;6.40;;
79126;SDS011;68528;48.814;8.904;2023-06-22T02:32:25;11.48;;;7.68;;
79126;SDS011;68528;48.814;8.904;2023-06-22T02:34:52;11.20;;;6.38;;
79126;SDS011;68528;48.814;8.904;2023-06-22T02:37:19;10.13;;;6.13;;
79126;SDS011;68528;48.814;8.904;2023-06-22T02:39:44;11.50;;;6.60;;
79126;SDS011;68528;48.814;8.904;2023-06-22T02:42:10;14.27;;;6.53;;
79126;SDS011;68528;48.814;8.904;2023-06-22T02:44:36;14.50;;;6.80;;
79126;SDS011;68528;48.814;8.904;2023-06-22T02:47:46;12.73;;;6.95;;
79126;SDS011;68528;48.814;8.904;2023-06-22T02:50:15;11.00;;;7.03;;
79126;SDS011;68528;48.814;8.904;2023-06-22T02:52:41;13.57;;;7.53;;
79126;SDS011;68528;48.814;8.904;2023-06-22T02:55:06;14.52;;;7.80;;
79126;SDS011;68528;48.814;8.904;2023-06-22T02:57:33;9.98;;;6.82;;
79126;SDS011;68528;48.814;8.904;2023-06-22T02:59:59;14.43;;;9.85;;
79126;SDS011;68528;48.814;8.904;2023-06-22T03:02:25;15.05;;;9.68;;
79126;SDS011;68528;48.814;8.904;2023-06-22T03:04:51;17.83;;;10.10;;
79126;SDS011;68528;48.814;8.904;2023-06-22T03:07:20;16.48;;;9.13;;
79126;SDS011;68528;48.814;8.904;2023-06-22T03:09:46;12.95;;;8.23;;
79126;SDS011;68528;48.814;8.904;2023-06-22T03:12:11;12.63;;;7.65;;
79126;SDS011;68528;48.814;8.904;2023-06-22T03:14:37;12.35;;;8.07;;
79126;SDS011;68528;48.814;8.904;2023-06-22T03:17:04;12.13;;;7.97;;
79126;SDS011;68528;48.814;8.904;2023-06-22T03:19:30;15.43;;;7.95;;
79126;SDS011;68528;48.814;8.904;2023-06-22T03:21:56;12.93;;;8.15;;
79126;SDS011;68528;48.814;8.904;2023-06-22T03:24:22;13.60;;;8.57;;
79126;SDS011;68528;48.814;8.904;2023-06-22T03:26:48;12.57;;;7.70;;
79126;SDS011;68528;48.814;8.904;2023-06-22T03:29:13;10.13;;;6.55;;
79126;SDS011;68528;48.814;8.904;2023-06-22T03:31:39;12.32;;;8.23;;
79126;SDS011;68528;48.814;8.904;2023-06-22T03:34:04;13.32;;;8.27;;
79126;SDS011;68528;48.814;8.904;2023-06-22T03:36:30;9.98;;;7.40;;
79126;SDS011;68528;48.814;8.904;2023-06-22T03:38:55;12.50;;;6.88;;
79126;SDS011;68528;48.814;8.904;2023-06-22T03:41:20;12.38;;;7.47;;
79126;SDS011;68528;48.814;8.904;2023-06-22T03:43:46;11.80;;;7.72;;
79126;SDS011;68528;48.814;8.904;2023-06-22T03:46:11;12.00;;;7.35;;
79126;SDS011;68528;48.814;8.904;2023-06-22T03:48:37;14.73;;;8.88;;
79126;SDS011;68528;48.814;8.904;2023-06-22T03:51:04;13.43;;;8.60;;
79126;SDS011;68528;48.814;8.904;2023-06-22T03:53:30;15.85;;;8.93;;
79126;SDS011;68528;48.814;8.904;2023-06-22T03:55:56;10.90;;;7.75;;
79126;SDS011;68528;48.814;8.904;2023-06-22T03:58:22;10.95;;;7.68;;
79126;SDS011;68528;48.814;8.904;2023-06-22T04:00:48;11.98;;;7.97;;
79126;SDS011;68528;48.814;8.904;2023-06-22T04:03:16;12.40;;;7.10;;
79126;SDS011;68528;48.814;8.904;2023-06-22T04:08:29;9.53;;;6.97;;
79126;SDS011;68528;48.814;8.904;2023-06-22T04:10:55;11.50;;;7.88;;
79126;SDS011;68528;48.814;8.904;2023-06-22T04:13:20;17.00;;;7.85;;
79126;SDS011;68528;48.814;8.904;2023-06-22T04:15:45;12.57;;;7.28;;
79126;SDS011;68528;48.814;8.904;2023-06-22T04:18:11;11.48;;;6.85;;
79126;SDS011;68528;48.814;8.904;2023-06-22T04:20:37;15.30;;;7.88;;
79126;SDS011;68528;48.814;8.904;2023-06-22T04:23:04;13.02;;;7.78;;
79126;SDS011;68528;48.814;8.904;2023-06-22T04:25:30;10.55;;;7.30;;
79126;SDS011;68528;48.814;8.904;2023-06-22T04:27:56;12.48;;;7.55;;
79126;SDS011;68528;48.814;8.904;2023-06-22T04:30:21;12.57;;;8.38;;
79126;SDS011;68528;48.814;8.904;2023-06-22T04:32:47;12.02;;;7.43;;
79126;SDS011;68528;48.814;8.904;2023-06-22T04:35:27;10.45;;;7.35;;
79126;SDS011;68528;48.814;8.904;2023-06-22T04:37:53;12.60;;;8.38;;
79126;SDS011;68528;48.814;8.904;2023-06-22T04:40:21;11.27;;;7.78;;
79126;SDS011;68528;48.814;8.904;2023-06-22T04:42:49;10.88;;;7.72;;
79126;SDS011;68528;48.814;8.904;2023-06-22T04:45:21;14.10;;;8.05;;
79126;SDS011;68528;48.814;8.904;2023-06-22T04:47:46;9.80;;;7.18;;
79126;SDS011;68528;48.814;8.904;2023-06-22T04:50:12;13.57;;;8.10;;
79126;SDS011;68528;48.814;8.904;2023-06-22T04:52:37;12.73;;;7.53;;
79126;SDS011;68528;48.814;8.904;2023-06-22T04:55:03;13.43;;;8.05;;
79126;SDS011;68528;48.814;8.904;2023-06-22T04:57:29;11.68;;;7.30;;
79126;SDS011;68528;48.814;8.904;2023-06-22T04:59:59;16.60;;;7.97;;
79126;SDS011;68528;48.814;8.904;2023-06-22T05:02:40;12.68;;;7.93;;
79126;SDS011;68528;48.814;8.904;2023-06-22T05:05:05;15.70;;;8.23;;
79126;SDS011;68528;48.814;8.904;2023-06-22T05:07:56;10.52;;;7.57;;
79126;SDS011;68528;48.814;8.904;2023-06-22T05:10:25;12.35;;;8.85;;
79126;SDS011;68528;48.814;8.904;2023-06-22T05:15:55;15.10;;;7.35;;
79126;SDS011;68528;48.814;8.904;2023-06-22T05:18:26;12.07;;;7.80;;
79126;SDS011;68528;48.814;8.904;2023-06-22T05:20:52;13.85;;;7.25;;
79126;SDS011;68528;48.814;8.904;2023-06-22T05:23:18;16.20;;;7.82;;
79126;SDS011;68528;48.814;8.904;2023-06-22T05:25:44;12.07;;;7.43;;
79126;SDS011;68528;48.814;8.904;2023-06-22T05:28:11;11.18;;;8.38;;
79126;SDS011;68528;48.814;8.904;2023-06-22T05:30:40;12.35;;;7.35;;
79126;SDS011;68528;48.814;8.904;2023-06-22T05:33:06;13.95;;;7.43;;
79126;SDS011;68528;48.814;8.904;2023-06-22T05:35:31;11.75;;;7.40;;
79126;SDS011;68528;48.814;8.904;2023-06-22T05:37:58;12.80;;;7.45;;
79126;SDS011;68528;48.814;8.904;2023-06-22T05:40:33;12.10;;;7.13;;
79126;SDS011;68528;48.814;8.904;2023-06-22T05:42:59;14.32;;;7.35;;
79126;SDS011;68528;48.814;8.904;2023-06-22T05:45:26;12.35;;;7.40;;
79126;SDS011;68528;48.814;8.904;2023-06-22T05:54:40;13.68;;;7.32;;
79126;SDS011;68528;48.814;8.904;2023-06-22T05:57:06;15.15;;;7.55;;
79126;SDS011;68528;48.814;8.904;2023-06-22T05:59:32;11.05;;;6.50;;
79126;SDS011;68528;48.814;8.904;2023-06-22T06:01:57;11.10;;;7.15;;
79126;SDS011;68528;48.814;8.904;2023-06-22T06:04:23;12.70;;;7.80;;
79126;SDS011;68528;48.814;8.904;2023-06-22T06:06:51;11.60;;;6.60;;
79126;SDS011;68528;48.814;8.904;2023-06-22T06:09:17;10.93;;;7.32;;
79126;SDS011;68528;48.814;8.904;2023-06-22T06:11:46;9.30;;;6.15;;
79126;SDS011;68528;48.814;8.904;2023-06-22T06:14:30;12.63;;;7.15;;
79126;SDS011;68528;48.814;8.904;2023-06-22T06:16:55;10.40;;;7.45;;
79126;SDS011;68528;48.814;8.904;2023-06-22T06:19:21;11.93;;;7.03;;
79126;SDS011;68528;48.814;8.904;2023-06-22T06:21:46;15.40;;;6.60;;
79126;SDS011;68528;48.814;8.904;2023-06-22T06:24:12;15.68;;;6.07;;
79126;SDS011;68528;48.814;8.904;2023-06-22T06:26:38;11.90;;;5.93;;
79126;SDS011;68528;48.814;8.904;2023-06-22T06:29:03;12.63;;;6.82;;
79126;SDS011;68528;48.814;8.904;2023-06-22T06:31:29;11.40;;;6.20;;
79126;SDS011;68528;48.814;8.904;2023-06-22T06:33:55;10.02;;;6.10;;
79126;SDS011;68528;48.814;8.904;2023-06-22T06:36:21;9.07;;;5.60;;
79126;SDS011;68528;48.814;8.904;2023-06-22T06:38:47;7.93;;;5.03;;
79126;SDS011;68528;48.814;8.904;2023-06-22T06:41:13;10.55;;;5.45;;
79126;SDS011;68528;48.814;8.904;2023-06-22T06:43:42;6.60;;;5.20;;
79126;SDS011;68528;48.814;8.904;2023-06-22T06:46:20;9.52;;;5.40;;
79126;SDS011;68528;48.814;8.904;2023-06-22T06:48:45;9.13;;;5.03;;
79126;SDS011;68528;48.814;8.904;2023-06-22T06:51:11;6.63;;;4.18;;
79126;SDS011;68528;48.814;8.904;2023-06-22T06:53:38;8.85;;;5.28;;
79126;SDS011;68528;48.814;8.904;2023-06-22T06:56:04;9.43;;;5.10;;
79126;SDS011;68528;48.814;8.904;2023-06-22T06:58:31;6.60;;;4.78;;
79126;SDS011;68528;48.814;8.904;2023-06-22T07:00:57;6.65;;;4.78;;
79126;SDS011;68528;48.814;8.904;2023-06-22T07:03:22;8.03;;;4.80;;
79126;SDS011;68528;48.814;8.904;2023-06-22T07:05:48;7.68;;;4.55;;
79126;SDS011;68528;48.814;8.904;2023-06-22T07:08:14;8.13;;;5.10;;
79126;SDS011;68528;48.814;8.904;2023-06-22T07:10:40;8.68;;;4.50;;
79126;SDS011;68528;48.814;8.904;2023-06-22T07:13:05;10.45;;;4.93;;
79126;SDS011;68528;48.814;8.904;2023-06-22T07:15:33;10.73;;;4.53;;
79126;SDS011;68528;48.814;8.904;2023-06-22T07:18:06;10.40;;;4.82;;
79126;SDS011;68528;48.814;8.904;2023-06-22T07:20:32;8.93;;;4.78;;
79126;SDS011;68528;48.814;8.904;2023-06-22T07:23:02;6.88;;;4.85;;
79126;SDS011;68528;48.814;8.904;2023-06-22T07:25:35;9.27;;;4.95;;
79126;SDS011;68528;48.814;8.904;2023-06-22T07:28:26;8.02;;;4.75;;
79126;SDS011;68528;48.814;8.904;2023-06-22T07:31:02;7.20;;;4.55;;
79126;SDS011;68528;48.814;8.904;2023-06-22T07:33:50;5.68;;;4.40;;
79126;SDS011;68528;48.814;8.904;2023-06-22T07:36:16;9.27;;;4.80;;
79126;SDS011;68528;48.814;8.904;2023-06-22T07:39:02;8.73;;;4.13;;
79126;SDS011;68528;48.814;8.904;2023-06-22T07:41:50;7.10;;;4.65;;
79126;SDS011;68528;48.814;8.904;2023-06-22T07:44:23;8.20;;;4.72;;
79126;SDS011;68528;48.814;8.904;2023-06-22T07:46:50;9.85;;;4.75;;
79126;SDS011;68528;48.814;8.904;2023-06-22T07:49:16;8.77;;;4.13;;
79126;SDS011;68528;48.814;8.904;2023-06-22T07:51:43;9.43;;;4.72;;
79126;SDS011;68528;48.814;8.904;2023-06-22T07:54:09;8.02;;;4.95;;
79126;SDS011;68528;48.814;8.904;2023-06-22T07:56:36;7.40;;;5.18;;
79126;SDS011;68528;48.814;8.904;2023-06-22T07:59:21;7.68;;;4.82;;
79126;SDS011;68528;48.814;8.904;2023-06-22T08:01:46;10.90;;;4.85;;
79126;SDS011;68528;48.814;8.904;2023-06-22T08:04:34;9.65;;;5.28;;
79126;SDS011;68528;48.814;8.904;2023-06-22T08:07:01;7.38;;;4.65;;
79126;SDS011;68528;48.814;8.904;2023-06-22T08:09:29;9.18;;;5.60;;
79126;SDS011;68528;48.814;8.904;2023-06-22T08:12:17;8.80;;;5.07;;
79126;SDS011;68528;48.814;8.904;2023-06-22T08:14:44;7.55;;;4.38;;
79126;SDS011;68528;48.814;8.904;2023-06-22T08:17:11;6.53;;;4.47;;
79126;SDS011;68528;48.814;8.904;2023-06-22T08:19:56;7.60;;;4.47;;
79126;SDS011;68528;48.814;8.904;2023-06-22T08:22:25;8.80;;;4.30;;
79126;SDS011;68528;48.814;8.904;2023-06-22T08:24:51;4.70;;;3.60;;
79126;SDS011;68528;48.814;8.904;2023-06-22T08:27:16;6.20;;;4.00;;
79126;SDS011;68528;48.814;8.904;2023-06-22T08:29:43;10.57;;;4.00;;
79126;SDS011;68528;48.814;8.904;2023-06-22T08:32:19;10.00;;;3.95;;
79126;SDS011;68528;48.814;8.904;2023-06-22T08:34:45;7.22;;;4.05;;
79126;SDS011;68528;48.814;8.904;2023-06-22T08:37:13;8.40;;;4.53;;
79126;SDS011;68528;48.814;8.904;2023-06-22T08:39:38;7.45;;;3.67;;
79126;SDS011;68528;48.814;8.904;2023-06-22T08:42:04;10.88;;;3.83;;
79126;SDS011;68528;48.814;8.904;2023-06-22T08:44:30;6.53;;;4.20;;
79126;SDS011;68528;48.814;8.904;2023-06-22T08:46:55;7.22;;;3.75;;
79126;SDS011;68528;48.814;8.904;2023-06-22T08:49:21;9.27;;;4.03;;
79126;SDS011;68528;48.814;8.904;2023-06-22T08:51:47;5.93;;;4.35;;
79126;SDS011;68528;48.814;8.904;2023-06-22T08:54:14;11.13;;;4.63;;
79126;SDS011;68528;48.814;8.904;2023-06-22T08:56:42;10.32;;;4.75;;
79126;SDS011;68528;48.814;8.904;2023-06-22T08:59:46;9.70;;;5.07;;
79126;SDS011;68528;48.814;8.904;2023-06-22T09:02:11;8.95;;;4.57;;
79126;SDS011;68528;48.814;8.904;2023-06-22T09:04:37;12.20;;;4.95;;
79126;SDS011;68528;48.814;8.904;2023-06-22T09:07:03;12.30;;;4.72;;
79126;SDS011;68528;48.814;8.904;2023-06-22T09:09:28;9.20;;;4.78;;
79126;SDS011;68528;48.814;8.904;2023-06-22T09:11:54;7.95;;;4.22;;
79126;SDS011;68528;48.814;8.904;2023-06-22T09:14:19;13.70;;;4.35;;
79126;SDS011;68528;48.814;8.904;2023-06-22T09:16:45;10.10;;;3.80;;
79126;SDS011;68528;48.814;8.904;2023-06-22T09:19:10;8.43;;;4.00;;
79126;SDS011;68528;48.814;8.904;2023-06-22T09:21:36;9.32;;;4.07;;
79126;SDS011;68528;48.814;8.904;2023-06-22T09:24:02;8.27;;;4.43;;
79126;SDS011;68528;48.814;8.904;2023-06-22T09:26:27;8.32;;;4.47;;
79126;SDS011;68528;48.814;8.904;2023-06-22T09:28:53;7.32;;;4.13;;
79126;SDS011;68528;48.814;8.904;2023-06-22T09:31:18;9.52;;;4.97;;
79126;SDS011;68528;48.814;8.904;2023-06-22T09:33:55;7.47;;;4.10;;
79126;SDS011;68528;48.814;8.904;2023-06-22T09:36:26;9.60;;;4.05;;
79126;SDS011;68528;48.814;8.904;2023-06-22T09:38:52;8.65;;;4.03;;
79126;SDS011;68528;48.814;8.904;2023-06-22T09:41:21;11.73;;;4.88;;
79126;SDS011;68528;48.814;8.904;2023-06-22T09:43:48;10.57;;;4.50;;
79126;SDS011;68528;48.814;8.904;2023-06-22T09:46:15;9.68;;;4.07;;
79126;SDS011;68528;48.814;8.904;2023-06-22T09:51:08;7.73;;;4.07;;
79126;SDS011;68528;48.814;8.904;2023-06-22T09:53:34;13.15;;;4.75;;
79126;SDS011;68528;48.814;8.904;2023-06-22T09:56:00;9.50;;;4.68;;
79126;SDS011;68528;48.814;8.904;2023-06-22T09:58:29;7.90;;;4.07;;
79126;SDS011;68528;48.814;8.904;2023-06-22T10:00:54;7.13;;;3.80;;
79126;SDS011;68528;48.814;8.904;2023-06-22T10:03:20;11.85;;;4.80;;
79126;SDS011;68528;48.814;8.904;2023-06-22T10:05:48;9.43;;;4.22;;
79126;SDS011;68528;48.814;8.904;2023-06-22T10:08:13;7.57;;;4.35;;
79126;SDS011;68528;48.814;8.904;2023-06-22T10:10:39;9.93;;;5.10;;
79126;SDS011;68528;48.814;8.904;2023-06-22T10:13:08;13.30;;;4.65;;
79126;SDS011;68528;48.814;8.904;2023-06-22T10:15:37;9.90;;;4.22;;
79126;SDS011;68528;48.814;8.904;2023-06-22T10:18:03;10.85;;;4.25;;
79126;SDS011;68528;48.814;8.904;2023-06-22T10:20:31;9.02;;;4.05;;
79126;SDS011;68528;48.814;8.904;2023-06-22T10:22:56;9.50;;;4.40;;
79126;SDS011;68528;48.814;8.904;2023-06-22T10:25:21;9.20;;;4.63;;
79126;SDS011;68528;48.814;8.904;2023-06-22T10:27:50;11.38;;;4.20;;
79126;SDS011;68528;48.814;8.904;2023-06-22T10:30:18;10.02;;;4.80;;
79126;SDS011;68528;48.814;8.904;2023-06-22T10:32:43;8.82;;;4.30;;
79126;SDS011;68528;48.814;8.904;2023-06-22T10:35:09;13.23;;;5.32;;
79126;SDS011;68528;48.814;8.904;2023-06-22T10:37:44;12.50;;;4.90;;
79126;SDS011;68528;48.814;8.904;2023-06-22T10:40:12;12.27;;;4.75;;
79126;SDS011;68528;48.814;8.904;2023-06-22T10:42:38;9.98;;;4.75;;
79126;SDS011;68528;48.814;8.904;2023-06-22T10:45:06;9.80;;;4.30;;
79126;SDS011;68528;48.814;8.904;2023-06-22T10:47:33;10.20;;;4.38;;
79126;SDS011;68528;48.814;8.904;2023-06-22T10:50:18;8.50;;;4.55;;
79126;SDS011;68528;48.814;8.904;2023-06-22T10:53:04;10.32;;;5.15;;
79126;SDS011;68528;48.814;8.904;2023-06-22T10:55:29;8.87;;;5.00;;
79126;SDS011;68528;48.814;8.904;2023-06-22T10:57:54;10.40;;;3.90;;
79126;SDS011;68528;48.814;8.904;2023-06-22T11:00:20;10.13;;;4.68;;
79126;SDS011;68528;48.814;8.904;2023-06-22T11:02:46;13.93;;;4.63;;
79126;SDS011;68528;48.814;8.904;2023-06-22T11:05:12;8.70;;;4.88;;
79126;SDS011;68528;48.814;8.904;2023-06-22T11:07:41;8.95;;;5.28;;
79126;SDS011;68528;48.814;8.904;2023-06-22T11:10:07;10.23;;;4.72;;
79126;SDS011;68528;48.814;8.904;2023-06-22T11:12:34;9.10;;;4.53;;
79126;SDS011;68528;48.814;8.904;2023-06-22T11:15:39;14.45;;;5.28;;
79126;SDS011;68528;48.814;8.904;2023-06-22T11:18:05;10.50;;;4.60;;
79126;SDS011;68528;48.814;8.904;2023-06-22T11:20:32;12.68;;;4.93;;
79126;SDS011;68528;48.814;8.904;2023-06-22T11:23:03;7.45;;;4.53;;
79126;SDS011;68528;48.814;8.904;2023-06-22T11:25:31;13.85;;;4.47;;
79126;SDS011;68528;48.814;8.904;2023-06-22T11:27:56;10.30;;;5.00;;
79126;SDS011;68528;48.814;8.904;2023-06-22T11:30:22;10.35;;;5.28;;
79126;SDS011;68528;48.814;8.904;2023-06-22T11:32:48;6.95;;;4.85;;
79126;SDS011;68528;48.814;8.904;2023-06-22T11:35:13;13.55;;;5.15;;
79126;SDS011;68528;48.814;8.904;2023-06-22T11:37:39;8.02;;;4.25;;
79126;SDS011;68528;48.814;8.904;2023-06-22T11:40:04;9.75;;;4.80;;
79126;SDS011;68528;48.814;8.904;2023-06-22T11:43:09;11.52;;;4.85;;
79126;SDS011;68528;48.814;8.904;2023-06-22T11:45:35;10.48;;;4.65;;
79126;SDS011;68528;48.814;8.904;2023-06-22T11:48:00;8.23;;;4.78;;
79126;SDS011;68528;48.814;8.904;2023-06-22T11:50:27;13.20;;;5.72;;
79126;SDS011;68528;48.814;8.904;2023-06-22T11:52:55;14.63;;;4.55;;
79126;SDS011;68528;48.814;8.904;2023-06-22T11:55:20;9.90;;;5.15;;
79126;SDS011;68528;48.814;8.904;2023-06-22T11:57:55;8.90;;;5.00;;
79126;SDS011;68528;48.814;8.904;2023-06-22T12:00:23;11.70;;;5.47;;
79126;SDS011;68528;48.814;8.904;2023-06-22T12:02:50;13.45;;;4.75;;
79126;SDS011;68528;48.814;8.904;2023-06-22T12:05:18;10.90;;;4.90;;
79126;SDS011;68528;48.814;8.904;2023-06-22T12:07:45;12.25;;;5.15;;
79126;SDS011;68528;48.814;8.904;2023-06-22T12:10:11;12.93;;;5.00;;
79126;SDS011;68528;48.814;8.904;2023-06-22T12:12:36;8.82;;;4.38;;
79126;SDS011;68528;48.814;8.904;2023-06-22T12:15:02;7.87;;;4.30;;
79126;SDS011;68528;48.814;8.904;2023-06-22T12:17:29;8.45;;;4.63;;
79126;SDS011;68528;48.814;8.904;2023-06-22T12:19:55;11.02;;;4.63;;
79126;SDS011;68528;48.814;8.904;2023-06-22T12:22:21;8.25;;;4.78;;
79126;SDS011;68528;48.814;8.904;2023-06-22T12:24:47;11.27;;;5.10;;
79126;SDS011;68528;48.814;8.904;2023-06-22T12:27:12;15.73;;;4.90;;
79126;SDS011;68528;48.814;8.904;2023-06-22T12:29:38;12.75;;;5.13;;
79126;SDS011;68528;48.814;8.904;2023-06-22T12:32:03;12.38;;;5.55;;
79126;SDS011;68528;48.814;8.904;2023-06-22T12:34:29;9.77;;;5.18;;
79126;SDS011;68528;48.814;8.904;2023-06-22T12:36:56;10.07;;;5.60;;
79126;SDS011;68528;48.814;8.904;2023-06-22T12:39:21;11.10;;;4.82;;
79126;SDS011;68528;48.814;8.904;2023-06-22T12:41:47;13.75;;;4.85;;
79126;SDS011;68528;48.814;8.904;2023-06-22T12:44:13;14.10;;;5.53;;
79126;SDS011;68528;48.814;8.904;2023-06-22T12:46:38;15.88;;;5.47;;
79126;SDS011;68528;48.814;8.904;2023-06-22T12:49:05;12.23;;;4.07;;
79126;SDS011;68528;48.814;8.904;2023-06-22T12:51:31;13.50;;;4.97;;
79126;SDS011;68528;48.814;8.904;2023-06-22T12:53:59;12.93;;;4.88;;
79126;SDS011;68528;48.814;8.904;2023-06-22T12:56:25;9.00;;;4.45;;
79126;SDS011;68528;48.814;8.904;2023-06-22T12:58:51;9.02;;;4.63;;
79126;SDS011;68528;48.814;8.904;2023-06-22T13:01:16;10.13;;;4.87;;
79126;SDS011;68528;48.814;8.904;2023-06-22T13:03:43;10.60;;;4.25;;
79126;SDS011;68528;48.814;8.904;2023-06-22T13:06:08;8.90;;;4.53;;
79126;SDS011;68528;48.814;8.904;2023-06-22T13:08:33;12.90;;;4.68;;
79126;SDS011;68528;48.814;8.904;2023-06-22T13:10:59;16.60;;;5.25;;
79126;SDS011;68528;48.814;8.904;2023-06-22T13:13:25;12.13;;;4.85;;
79126;SDS011;68528;48.814;8.904;2023-06-22T13:15:52;12.90;;;5.32;;
79126;SDS011;68528;48.814;8.904;2023-06-22T13:18:18;11.80;;;4.72;;
79126;SDS011;68528;48.814;8.904;2023-06-22T13:20:45;9.75;;;4.63;;
79126;SDS011;68528;48.814;8.904;2023-06-22T13:23:11;7.57;;;4.78;;
79126;SDS011;68528;48.814;8.904;2023-06-22T13:25:37;19.17;;;5.00;;
79126;SDS011;68528;48.814;8.904;2023-06-22T13:28:03;9.40;;;4.53;;
79126;SDS011;68528;48.814;8.904;2023-06-22T13:30:29;11.18;;;4.47;;
79126;SDS011;68528;48.814;8.904;2023-06-22T13:32:55;11.57;;;5.13;;
79126;SDS011;68528;48.814;8.904;2023-06-22T13:35:21;11.55;;;5.35;;
79126;SDS011;68528;48.814;8.904;2023-06-22T13:37:46;14.30;;;4.28;;
79126;SDS011;68528;48.814;8.904;2023-06-22T13:40:11;9.50;;;4.35;;
79126;SDS011;68528;48.814;8.904;2023-06-22T13:42:37;10.40;;;5.03;;
79126;SDS011;68528;48.814;8.904;2023-06-22T13:45:04;9.35;;;4.90;;
79126;SDS011;68528;48.814;8.904;2023-06-22T13:47:31;13.20;;;5.00;;
79126;SDS011;68528;48.814;8.904;2023-06-22T13:49:57;10.57;;;4.78;;
79126;SDS011;68528;48.814;8.904;2023-06-22T13:52:22;10.55;;;4.70;;
79126;SDS011;68528;48.814;8.904;2023-06-22T13:54:48;10.70;;;4.47;;
79126;SDS011;68528;48.814;8.904;2023-06-22T13:57:13;10.77;;;4.50;;
79126;SDS011;68528;48.814;8.904;2023-06-22T13:59:39;14.20;;;5.13;;
79126;SDS011;68528;48.814;8.904;2023-06-22T14:02:04;12.45;;;4.20;;
79126;SDS011;68528;48.814;8.904;2023-06-22T14:04:30;14.93;;;4.57;;
79126;SDS011;68528;48.814;8.904;2023-06-22T14:06:55;12.82;;;4.25;;
79126;SDS011;68528;48.814;8.904;2023-06-22T14:09:21;11.85;;;4.18;;
79126;SDS011;68528;48.814;8.904;2023-06-22T14:11:47;9.35;;;3.13;;
79126;SDS011;68528;48.814;8.904;2023-06-22T14:14:13;8.23;;;3.75;;
79126;SDS011;68528;48.814;8.904;2023-06-22T14:16:38;13.88;;;3.22;;
79126;SDS011;68528;48.814;8.904;2023-06-22T14:19:04;11.03;;;3.23;;
79126;SDS011;68528;48.814;8.904;2023-06-22T14:21:29;11.57;;;3.22;;
79126;SDS011;68528;48.814;8.904;2023-06-22T14:23:54;8.57;;;2.63;;
79126;SDS011;68528;48.814;8.904;2023-06-22T14:26:20;13.20;;;3.30;;
79126;SDS011;68528;48.814;8.904;2023-06-22T14:28:47;13.05;;;3.17;;
79126;SDS011;68528;48.814;8.904;2023-06-22T14:31:15;6.53;;;2.60;;
79126;SDS011;68528;48.814;8.904;2023-06-22T14:33:43;13.80;;;2.50;;
79126;SDS011;68528;48.814;8.904;2023-06-22T14:36:13;13.45;;;3.22;;
79126;SDS011;68528;48.814;8.904;2023-06-22T14:38:39;8.55;;;2.83;;
79126;SDS011;68528;48.814;8.904;2023-06-22T14:41:04;11.87;;;2.87;;
79126;SDS011;68528;48.814;8.904;2023-06-22T14:43:30;10.10;;;2.90;;
79126;SDS011;68528;48.814;8.904;2023-06-22T14:45:57;9.75;;;3.05;;
79126;SDS011;68528;48.814;8.904;2023-06-22T14:48:45;8.38;;;2.55;;
79126;SDS011;68528;48.814;8.904;2023-06-22T14:51:12;10.85;;;2.58;;
79126;SDS011;68528;48.814;8.904;2023-06-22T14:54:18;11.32;;;2.75;;
79126;SDS011;68528;48.814;8.904;2023-06-22T15:00:30;12.55;;;3.00;;
79126;SDS011;68528;48.814;8.904;2023-06-22T15:02:55;15.00;;;3.25;;
79126;SDS011;68528;48.814;8.904;2023-06-22T15:05:21;13.45;;;3.00;;
79126;SDS011;68528;48.814;8.904;2023-06-22T15:07:48;6.95;;;2.47;;
79126;SDS011;68528;48.814;8.904;2023-06-22T15:10:13;12.00;;;2.95;;
79126;SDS011;68528;48.814;8.904;2023-06-22T15:12:39;16.67;;;3.30;;
79126;SDS011;68528;48.814;8.904;2023-06-22T15:15:06;7.72;;;2.72;;
79126;SDS011;68528;48.814;8.904;2023-06-22T15:17:33;9.00;;;3.05;;